Tempe, Arizona
Current Conditions -  °F | °C
As of 1:51 PM on Tuesday 25 Nov 2014 (Local Time) from KPHX Reporting Station
Clear Clear  
Wind Chill: 66°   Ceiling: Unl
Heat Index: 66°   Visibility: 10mi
Dew Point:   Wind: 5mph
Humidity: 8%   Direction: 340°NNW
Pressure: 30.33"   Gusts: NA
Location:  33.43°N, 111.93°W
Report Text: KPHX 252051Z 34004KT 10SM CLR 19/M17 A3033 RMK AO2 SLP263 T01891167 58037
Loading
Personal Weather Stations






























Interactive Weather Map New forecast layout! Learn more

10-Day Weather Forecast

Advertisements
Track Severe Weather on mobile